createdAt,value
2018-07-19T00:00:28.530Z,51.50
2018-07-19T00:05:31.778Z,53.10
2018-07-19T00:10:35.162Z,53.30
2018-07-19T00:15:38.414Z,53.90
2018-07-19T00:20:41.663Z,53.50
2018-07-19T00:25:44.914Z,54.50
2018-07-19T00:30:48.278Z,54.60
2018-07-19T00:35:51.928Z,52.60
2018-07-19T00:40:55.230Z,52.70
2018-07-19T00:45:58.483Z,52.40
2018-07-19T00:51:01.750Z,52.40
2018-07-19T00:56:05.182Z,53.40
2018-07-19T01:01:08.421Z,54.60
2018-07-19T01:06:11.832Z,54.30
2018-07-19T01:11:15.070Z,52.70
2018-07-19T01:16:18.453Z,52.60
2018-07-19T01:21:21.702Z,52.60
2018-07-19T01:26:24.982Z,52.60
2018-07-19T01:31:28.228Z,52.90
2018-07-19T01:36:31.490Z,52.60
2018-07-19T01:42:12.236Z,52.60
2018-07-19T01:47:15.486Z,53.30
2018-07-19T01:52:18.779Z,53.40
2018-07-19T01:57:22.222Z,53.40
2018-07-19T02:02:25.448Z,53.30
2018-07-19T02:07:28.741Z,54.00
2018-07-19T02:12:31.982Z,53.60
2018-07-19T02:17:35.221Z,55.90
2018-07-19T02:22:38.517Z,55.60
2018-07-19T02:27:41.819Z,55.00
2018-07-19T02:32:45.078Z,54.30
2018-07-19T02:37:48.315Z,54.50
2018-07-19T02:42:51.587Z,54.20
2018-07-19T02:47:54.847Z,54.80
2018-07-19T02:52:58.106Z,55.60
2018-07-19T02:58:01.486Z,55.40
2018-07-19T03:03:04.754Z,55.60
2018-07-19T03:08:08.206Z,57.10
2018-07-19T03:13:11.437Z,57.80
2018-07-19T03:18:14.750Z,58.80
2018-07-19T03:23:18.080Z,59.10
2018-07-19T03:28:21.389Z,56.30
2018-07-19T03:33:24.672Z,56.40
2018-07-19T03:38:27.915Z,56.00
2018-07-19T03:43:31.146Z,57.00
2018-07-19T03:48:34.379Z,57.20
2018-07-19T03:53:37.669Z,58.80
2018-07-19T04:03:50.936Z,57.00
2018-07-19T04:08:54.210Z,57.40
2018-07-19T04:13:57.468Z,57.80
2018-07-19T04:19:00.729Z,57.30
2018-07-19T04:24:04.008Z,56.10
2018-07-19T04:29:07.271Z,55.90
2018-07-19T04:34:10.530Z,56.40
2018-07-19T04:39:20.443Z,55.00
2018-07-19T04:44:23.828Z,54.60
2018-07-19T04:49:29.367Z,55.00
2018-07-19T04:54:32.891Z,53.30
2018-07-19T04:59:36.104Z,52.50
2018-07-19T05:04:39.487Z,51.40
2018-07-19T05:09:43.098Z,51.90
2018-07-19T05:14:46.411Z,51.30
2018-07-19T05:19:49.759Z,51.60
2018-07-19T05:24:53.266Z,50.60
2018-07-19T05:29:56.528Z,51.30
2018-07-19T05:34:59.798Z,51.10
2018-07-19T05:40:03.095Z,49.80
2018-07-19T05:45:06.358Z,50.60
2018-07-19T05:50:09.615Z,50.10
2018-07-19T05:55:13.011Z,51.20
2018-07-19T06:00:16.343Z,52.10
2018-07-19T06:10:53.820Z,51.20
2018-07-19T06:15:57.177Z,50.00
2018-07-19T06:21:00.469Z,49.50
2018-07-19T06:26:03.762Z,49.20
2018-07-19T06:31:07.054Z,50.40
2018-07-19T06:36:10.298Z,50.60
2018-07-19T06:41:13.633Z,52.40
2018-07-19T06:46:16.839Z,52.60
2018-07-19T06:51:20.102Z,49.90
2018-07-19T06:56:23.402Z,50.50
2018-07-19T07:01:26.710Z,51.40
2018-07-19T07:06:29.970Z,53.70
2018-07-19T07:11:33.206Z,55.50
2018-07-19T07:16:36.537Z,55.50
2018-07-19T07:21:39.792Z,54.90
2018-07-19T07:26:43.259Z,54.60
2018-07-19T07:31:46.523Z,52.30
2018-07-19T07:36:49.909Z,50.50
2018-07-19T07:41:53.213Z,51.20
2018-07-19T07:46:56.482Z,51.00
2018-07-19T07:51:59.883Z,50.10
2018-07-19T07:57:03.166Z,50.70
2018-07-19T08:02:06.539Z,50.30
2018-07-19T08:07:09.811Z,52.00
2018-07-19T08:12:13.108Z,50.50
2018-07-19T08:17:16.363Z,49.20
2018-07-19T08:22:19.811Z,49.70
2018-07-19T08:27:23.087Z,50.10
2018-07-19T08:32:26.422Z,49.00
2018-07-19T08:37:29.677Z,48.40
2018-07-19T08:42:33.030Z,48.80
2018-07-19T08:47:36.280Z,49.20
2018-07-19T08:52:39.539Z,46.40
2018-07-19T08:57:42.797Z,45.00
2018-07-19T09:02:46.089Z,46.10
2018-07-19T09:07:49.344Z,43.90
2018-07-19T09:12:52.636Z,41.80
2018-07-19T09:17:55.931Z,40.70
2018-07-19T09:22:59.203Z,40.70
2018-07-19T09:28:02.474Z,40.20
2018-07-19T09:33:06.600Z,39.30
2018-07-19T09:38:09.855Z,41.30
2018-07-19T09:43:13.167Z,40.20
2018-07-19T09:48:16.423Z,41.30
2018-07-19T09:53:19.668Z,36.30
2018-07-19T09:58:22.935Z,38.70
2018-07-19T10:03:26.248Z,42.50
2018-07-19T10:08:29.516Z,40.00
2018-07-19T10:13:32.827Z,38.60
2018-07-19T10:18:36.061Z,40.70
2018-07-19T10:23:39.379Z,37.80
2018-07-19T10:28:42.723Z,36.00
2018-07-19T10:33:45.964Z,37.30
2018-07-19T10:38:49.231Z,37.90
2018-07-19T10:43:52.552Z,40.30
2018-07-19T10:48:55.840Z,40.00
2018-07-19T10:53:59.223Z,40.10
2018-07-19T10:59:02.554Z,41.20
2018-07-19T11:04:05.998Z,40.50
2018-07-19T11:09:09.937Z,40.70
2018-07-19T11:14:13.349Z,39.40
2018-07-19T11:19:16.729Z,37.80
2018-07-19T11:24:20.012Z,39.00
2018-07-19T11:29:23.331Z,38.60
2018-07-19T11:34:26.613Z,38.80
2018-07-19T11:39:29.912Z,38.50
2018-07-19T11:44:33.135Z,39.10
2018-07-19T11:49:36.410Z,36.70
2018-07-19T11:54:39.655Z,37.00
2018-07-19T11:59:42.930Z,36.10
2018-07-19T12:04:46.232Z,37.60
2018-07-19T12:09:49.478Z,34.80
2018-07-19T12:14:52.734Z,36.60
2018-07-19T12:19:55.983Z,32.80
2018-07-19T12:24:59.267Z,33.60
2018-07-19T12:30:02.547Z,31.80
2018-07-19T12:35:05.884Z,32.00
2018-07-19T12:40:09.151Z,31.30
2018-07-19T12:45:12.410Z,30.00
2018-07-19T12:50:15.902Z,32.90
2018-07-19T12:55:19.172Z,32.90
2018-07-19T13:00:22.712Z,34.40
2018-07-19T13:05:26.008Z,33.90
2018-07-19T13:10:29.279Z,33.60
2018-07-19T13:15:33.460Z,34.30
2018-07-19T13:20:36.843Z,31.00
2018-07-19T13:25:40.091Z,32.50
2018-07-19T13:30:43.359Z,30.00
2018-07-19T13:35:46.602Z,30.60
2018-07-19T13:40:50.716Z,31.60
2018-07-19T13:45:53.970Z,30.70
2018-07-19T13:50:57.375Z,29.00
2018-07-19T13:56:00.673Z,28.50
2018-07-19T14:01:04.149Z,29.60
2018-07-19T14:06:07.476Z,30.40
2018-07-19T14:11:10.911Z,32.40
2018-07-19T14:16:14.471Z,31.40
2018-07-19T14:21:17.714Z,32.10
2018-07-19T14:26:20.974Z,32.40
2018-07-19T14:31:24.242Z,32.80
2018-07-19T14:36:27.526Z,31.50
2018-07-19T14:41:30.801Z,31.00
2018-07-19T14:46:34.379Z,32.60
2018-07-19T14:51:37.751Z,33.50
2018-07-19T14:56:41.065Z,33.00
2018-07-19T15:01:44.373Z,34.10
2018-07-19T15:06:47.623Z,33.90
2018-07-19T15:11:51.057Z,34.80
2018-07-19T15:16:54.312Z,34.00
2018-07-19T15:21:57.567Z,35.20
2018-07-19T15:27:00.847Z,34.40
2018-07-19T15:32:04.250Z,33.80
2018-07-19T15:37:07.514Z,33.70
2018-07-19T15:42:11.078Z,34.40
2018-07-19T15:47:14.441Z,33.30
2018-07-19T15:52:17.688Z,34.40
2018-07-19T15:57:21.067Z,34.40
2018-07-19T16:02:24.317Z,33.60
2018-07-19T16:07:27.623Z,33.20
2018-07-19T16:12:30.963Z,33.20
2018-07-19T16:17:34.266Z,33.30
2018-07-19T16:22:37.649Z,34.00
2018-07-19T16:27:40.891Z,33.60
2018-07-19T16:32:44.213Z,34.10
2018-07-19T16:37:47.543Z,33.90
2018-07-19T16:42:50.967Z,33.60
2018-07-19T16:47:54.190Z,34.20
2018-07-19T16:52:57.527Z,35.00
2018-07-19T16:58:00.823Z,33.80
2018-07-19T17:03:04.285Z,34.80
2018-07-19T17:08:07.587Z,34.40
2018-07-19T17:13:11.171Z,35.30
2018-07-19T17:18:14.476Z,35.40
2018-07-19T17:23:17.811Z,35.60
2018-07-19T17:28:21.068Z,36.30
2018-07-19T17:33:24.479Z,35.70
2018-07-19T17:38:27.713Z,35.70
2018-07-19T17:43:30.986Z,35.90
2018-07-19T17:53:37.659Z,36.60
2018-07-19T17:58:40.994Z,36.30
2018-07-19T18:03:44.400Z,36.80
2018-07-19T18:08:47.771Z,36.90
2018-07-19T18:13:51.277Z,36.60
2018-07-19T18:18:54.551Z,37.20
2018-07-19T18:23:57.828Z,37.40
2018-07-19T18:29:01.280Z,37.60
2018-07-19T18:34:04.695Z,38.30
2018-07-19T18:39:09.929Z,38.30
2018-07-19T18:44:13.295Z,38.40
2018-07-19T18:49:16.712Z,38.70
2018-07-19T18:54:19.965Z,39.20
2018-07-19T18:59:23.238Z,40.30
2018-07-19T19:04:26.524Z,40.00
2018-07-19T19:09:29.808Z,40.90
2018-07-19T19:14:33.243Z,41.20
2018-07-19T19:19:36.538Z,41.80
2018-07-19T19:24:39.926Z,42.00
2018-07-19T19:29:43.178Z,42.50
2018-07-19T19:34:46.484Z,42.40
2018-07-19T19:39:49.993Z,42.70
2018-07-19T19:44:53.334Z,43.30
2018-07-19T19:49:56.616Z,43.60
2018-07-19T19:54:59.874Z,43.20
2018-07-19T20:00:03.368Z,43.60
2018-07-19T20:05:06.630Z,44.10
2018-07-19T20:10:09.942Z,44.50
2018-07-19T20:15:13.497Z,44.40
2018-07-19T20:20:17.048Z,44.40
2018-07-19T20:25:20.542Z,45.10
2018-07-19T20:35:26.823Z,46.10
2018-07-19T20:40:30.234Z,46.00
2018-07-19T20:45:33.502Z,46.60
2018-07-19T20:50:36.794Z,47.10
2018-07-19T20:55:40.034Z,47.80
2018-07-19T21:00:43.286Z,48.30
2018-07-19T21:05:46.640Z,48.80
2018-07-19T21:10:49.906Z,49.50
2018-07-19T21:15:53.159Z,50.00
2018-07-19T21:20:56.419Z,50.30
2018-07-19T21:25:59.651Z,50.60
2018-07-19T21:31:02.933Z,50.60
2018-07-19T21:41:09.202Z,50.10
2018-07-19T21:46:12.455Z,49.80
2018-07-19T21:51:15.707Z,49.80
2018-07-19T21:56:18.946Z,49.90
2018-07-19T22:01:22.364Z,49.90
2018-07-19T22:06:25.776Z,50.00
2018-07-19T22:11:29.062Z,50.20
2018-07-19T22:16:32.431Z,50.20
2018-07-19T22:21:35.818Z,49.30
2018-07-19T22:26:39.416Z,48.90
2018-07-19T22:31:42.684Z,49.20
2018-07-19T22:36:45.971Z,48.70
2018-07-19T22:41:49.215Z,49.20
2018-07-19T22:46:52.479Z,49.40
2018-07-19T22:51:55.888Z,49.60
2018-07-19T22:56:59.122Z,49.70
2018-07-19T23:02:02.427Z,49.30
2018-07-19T23:07:05.775Z,49.60
2018-07-19T23:12:09.181Z,49.10
2018-07-19T23:17:12.450Z,48.50
2018-07-19T23:22:15.703Z,48.70
2018-07-19T23:27:18.960Z,49.00
2018-07-19T23:32:22.242Z,49.00
2018-07-19T23:37:30.795Z,48.90
2018-07-19T23:42:37.143Z,48.70
2018-07-19T23:47:41.601Z,48.80
2018-07-19T23:52:44.859Z,49.00
2018-07-19T23:57:48.122Z,48.60
